createdAt,value
2018-05-31T00:01:28.806Z,65.59
2018-05-31T00:03:57.831Z,65.68
2018-05-31T00:06:26.458Z,65.80
2018-05-31T00:08:55.044Z,65.95
2018-05-31T00:11:24.354Z,66.11
2018-05-31T00:13:53.720Z,66.73
2018-05-31T00:16:22.452Z,66.71
2018-05-31T00:18:51.507Z,66.66
2018-05-31T00:21:20.175Z,66.85
2018-05-31T00:23:48.738Z,67.18
2018-05-31T00:26:17.397Z,67.38
2018-05-31T00:28:48.968Z,67.51
2018-05-31T00:31:21.325Z,67.67
2018-05-31T00:36:28.417Z,68.57
2018-05-31T00:39:11.741Z,68.64
2018-05-31T00:41:42.730Z,68.82
2018-05-31T00:44:15.632Z,68.89
2018-05-31T00:46:57.097Z,68.88
2018-05-31T00:52:13.847Z,68.73
2018-05-31T01:00:45.201Z,68.96
2018-05-31T01:24:05.709Z,70.15
2018-05-31T01:29:29.375Z,70.28
2018-05-31T01:32:04.618Z,70.67
2018-05-31T01:37:35.036Z,71.33
2018-05-31T01:43:00.534Z,71.86
2018-05-31T01:45:34.206Z,71.73
2018-05-31T01:48:18.686Z,71.99
2018-05-31T01:56:24.189Z,71.92
2018-05-31T01:59:03.020Z,72.20
2018-05-31T02:01:35.184Z,72.15
2018-05-31T02:04:12.796Z,72.13
2018-05-31T02:06:47.003Z,72.83
2018-05-31T02:09:30.023Z,72.79
2018-05-31T02:15:00.331Z,72.55
2018-05-31T02:17:49.702Z,72.86
2018-05-31T02:20:24.480Z,72.95
2018-05-31T02:22:54.978Z,72.30
2018-05-31T02:25:25.238Z,72.52
2018-05-31T02:27:53.900Z,73.03
2018-05-31T02:30:24.493Z,73.93
2018-05-31T02:32:53.958Z,74.34
2018-05-31T02:35:23.834Z,74.31
2018-05-31T02:37:54.219Z,74.25
2018-05-31T02:40:24.622Z,74.58
2018-05-31T02:42:53.265Z,75.40
2018-05-31T02:45:21.936Z,75.84
2018-05-31T02:47:57.624Z,75.98
2018-05-31T02:50:26.235Z,76.21
2018-05-31T02:52:55.628Z,76.81
2018-05-31T02:55:25.042Z,76.90
2018-05-31T02:57:58.026Z,76.62
2018-05-31T03:00:28.943Z,76.32
2018-05-31T03:02:58.509Z,76.44
2018-05-31T03:05:28.402Z,76.75
2018-05-31T03:07:57.022Z,76.68
2018-05-31T03:10:25.655Z,77.02
2018-05-31T03:12:55.440Z,77.46
2018-05-31T03:15:25.869Z,77.63
2018-05-31T03:17:58.477Z,77.98
2018-05-31T03:20:27.173Z,77.95
2018-05-31T03:22:56.581Z,77.76
2018-05-31T03:25:27.317Z,77.79
2018-05-31T03:27:57.339Z,77.90
2018-05-31T03:30:26.623Z,77.99
2018-05-31T03:32:55.232Z,78.02
2018-05-31T03:35:23.869Z,78.42
2018-05-31T03:37:52.445Z,78.31
2018-05-31T03:40:21.225Z,78.08
2018-05-31T03:42:49.976Z,78.03
2018-05-31T03:45:18.606Z,78.05
2018-05-31T03:47:48.739Z,78.03
2018-05-31T03:50:17.237Z,78.00
2018-05-31T03:52:46.246Z,78.16
2018-05-31T03:55:14.839Z,77.71
2018-05-31T03:57:44.234Z,77.87
2018-05-31T04:00:16.722Z,78.11
2018-05-31T04:02:47.023Z,77.96
2018-05-31T04:05:18.018Z,77.93
2018-05-31T04:07:49.589Z,77.93
2018-05-31T04:10:24.707Z,77.91
2018-05-31T04:12:55.047Z,77.93
2018-05-31T04:15:24.502Z,78.67
2018-05-31T04:17:55.332Z,78.76
2018-05-31T04:23:05.836Z,78.77
2018-05-31T04:25:36.203Z,78.83
2018-05-31T04:28:09.799Z,78.84
2018-05-31T04:30:53.206Z,78.90
2018-05-31T04:33:25.315Z,79.05
2018-05-31T04:35:59.005Z,79.51
2018-05-31T04:38:31.381Z,79.48
2018-05-31T04:41:09.620Z,79.00
2018-05-31T04:43:42.758Z,79.26
2018-05-31T04:46:16.415Z,79.04
2018-05-31T04:54:28.604Z,78.67
2018-05-31T05:02:44.301Z,77.42
2018-05-31T05:05:21.125Z,76.95
2018-05-31T05:13:35.246Z,73.60
2018-05-31T05:27:14.003Z,70.40
2018-05-31T05:29:49.261Z,70.83
2018-05-31T05:32:29.413Z,70.73
2018-05-31T05:35:06.116Z,71.27
2018-05-31T05:37:41.117Z,72.70
2018-05-31T05:40:11.954Z,73.48
2018-05-31T05:42:44.393Z,72.66
2018-05-31T05:45:18.771Z,70.96
2018-05-31T05:47:53.556Z,70.79
2018-05-31T06:20:10.840Z,69.74
2018-05-31T06:22:51.363Z,68.52
2018-05-31T06:25:34.297Z,68.36
2018-05-31T06:28:04.619Z,67.55
2018-05-31T06:30:38.658Z,66.94
2018-05-31T06:35:49.754Z,66.74
2018-05-31T06:38:34.325Z,65.13
2018-05-31T06:41:04.123Z,65.19
2018-05-31T06:43:46.517Z,65.09
2018-05-31T06:49:06.357Z,66.67
2018-05-31T06:59:41.873Z,62.88
2018-05-31T07:02:24.090Z,61.79
2018-05-31T07:04:54.952Z,66.37
2018-05-31T07:07:24.543Z,63.97
2018-05-31T07:09:54.047Z,66.70
2018-05-31T07:12:22.775Z,64.44
2018-05-31T07:14:52.177Z,62.90
2018-05-31T07:17:20.792Z,60.96
2018-05-31T07:19:52.231Z,61.40
2018-05-31T07:24:55.006Z,63.51
2018-05-31T07:27:23.618Z,62.32
2018-05-31T07:29:52.991Z,64.85
2018-05-31T07:32:21.535Z,62.13
2018-05-31T07:34:50.184Z,62.18
2018-05-31T07:37:18.980Z,57.93
2018-05-31T07:39:47.597Z,60.58
2018-05-31T07:42:16.941Z,60.57
2018-05-31T07:44:45.771Z,60.62
2018-05-31T07:47:16.053Z,61.72
2018-05-31T07:49:45.313Z,60.04
2018-05-31T07:52:14.453Z,61.22
2018-05-31T07:54:42.978Z,59.51
2018-05-31T07:57:11.499Z,62.79
2018-05-31T07:59:40.244Z,57.14
2018-05-31T08:02:08.745Z,56.14
2018-05-31T08:04:37.357Z,55.34
2018-05-31T08:07:06.817Z,57.64
2018-05-31T08:09:35.385Z,59.47
2018-05-31T08:12:04.090Z,53.90
2018-05-31T08:14:32.829Z,55.59
2018-05-31T08:17:03.144Z,54.09
2018-05-31T08:19:32.710Z,57.49
2018-05-31T08:22:01.277Z,56.01
2018-05-31T08:24:30.839Z,53.43
2018-05-31T08:26:59.334Z,57.85
2018-05-31T08:29:28.913Z,53.62
2018-05-31T08:31:57.360Z,51.28
2018-05-31T08:34:26.585Z,54.33
2018-05-31T08:36:55.035Z,51.05
2018-05-31T08:39:23.455Z,50.98
2018-05-31T08:41:51.887Z,52.74
2018-05-31T08:44:20.292Z,52.90
2018-05-31T08:46:48.718Z,50.75
2018-05-31T08:49:17.129Z,50.19
2018-05-31T08:51:45.564Z,53.15
2018-05-31T08:54:14.821Z,52.54
2018-05-31T08:56:43.258Z,48.87
2018-05-31T08:59:12.430Z,51.26
2018-05-31T09:01:40.871Z,49.45
2018-05-31T09:04:09.273Z,51.28
2018-05-31T09:06:38.709Z,49.13
2018-05-31T09:09:07.134Z,50.50
2018-05-31T09:11:35.573Z,50.66
2018-05-31T09:14:03.987Z,48.87
2018-05-31T09:16:33.209Z,48.36
2018-05-31T09:19:01.783Z,54.68
2018-05-31T09:21:30.346Z,52.71
2018-05-31T09:23:59.144Z,57.18
2018-05-31T09:26:28.428Z,51.11
2018-05-31T09:28:57.009Z,52.80
2018-05-31T09:31:25.559Z,45.86
2018-05-31T09:33:53.989Z,50.64
2018-05-31T09:36:22.568Z,49.77
2018-05-31T09:38:51.069Z,47.81
2018-05-31T09:41:20.363Z,51.43
2018-05-31T09:43:49.735Z,52.21
2018-05-31T09:46:18.249Z,55.27
2018-05-31T09:48:46.811Z,52.86
2018-05-31T09:51:15.325Z,55.80
2018-05-31T09:53:43.817Z,55.95
2018-05-31T09:56:12.370Z,51.42
2018-05-31T09:58:40.904Z,55.07
2018-05-31T10:01:09.407Z,49.77
2018-05-31T10:03:38.638Z,53.08
2018-05-31T10:06:07.244Z,50.99
2018-05-31T10:08:35.713Z,51.34
2018-05-31T10:11:04.163Z,48.96
2018-05-31T10:13:33.832Z,50.27
2018-05-31T10:16:02.315Z,54.74
2018-05-31T10:18:30.830Z,52.07
2018-05-31T10:20:59.364Z,50.56
2018-05-31T10:23:27.806Z,49.60
2018-05-31T10:25:56.374Z,50.30
2018-05-31T10:28:24.870Z,52.58
2018-05-31T10:30:54.321Z,49.34
2018-05-31T10:33:22.906Z,54.08
2018-05-31T10:35:51.372Z,49.47
2018-05-31T10:38:20.622Z,55.70
2018-05-31T10:40:49.158Z,51.41
2018-05-31T10:43:19.953Z,53.92
2018-05-31T10:45:48.515Z,50.86
2018-05-31T10:48:17.019Z,49.31
2018-05-31T10:50:45.544Z,50.67
2018-05-31T10:53:14.071Z,49.20
2018-05-31T10:55:42.619Z,53.94
2018-05-31T10:58:12.043Z,55.35
2018-05-31T11:00:40.566Z,55.53
2018-05-31T11:03:09.069Z,51.64
2018-05-31T11:05:37.594Z,49.14
2018-05-31T11:08:06.975Z,51.76
2018-05-31T11:10:35.453Z,51.16
2018-05-31T11:13:04.059Z,51.47
2018-05-31T11:15:32.537Z,51.87
2018-05-31T11:18:01.062Z,52.74
2018-05-31T11:20:29.601Z,51.78
2018-05-31T11:22:58.070Z,52.96
2018-05-31T11:25:26.555Z,54.49
2018-05-31T11:27:55.068Z,54.29
2018-05-31T11:30:23.560Z,55.59
2018-05-31T11:32:52.051Z,57.40
2018-05-31T11:35:20.575Z,55.38
2018-05-31T11:37:49.144Z,56.07
2018-05-31T11:40:18.596Z,57.17
2018-05-31T11:42:47.131Z,57.91
2018-05-31T11:45:16.941Z,59.40
2018-05-31T11:47:46.949Z,60.02
2018-05-31T11:50:15.456Z,61.21
2018-05-31T11:52:47.643Z,61.82
2018-05-31T11:55:16.104Z,62.80
2018-05-31T11:57:45.341Z,64.84
2018-05-31T12:00:13.859Z,66.34
2018-05-31T12:02:42.375Z,69.22
2018-05-31T12:05:10.864Z,70.87
2018-05-31T12:07:40.130Z,69.96
2018-05-31T12:10:08.584Z,63.54
2018-05-31T12:12:37.049Z,66.19
2018-05-31T12:15:06.222Z,70.14
2018-05-31T12:17:34.839Z,74.62
2018-05-31T12:20:03.243Z,77.86
2018-05-31T12:22:31.718Z,80.13
2018-05-31T12:25:00.892Z,81.15
2018-05-31T12:27:29.351Z,84.20
2018-05-31T12:29:57.760Z,85.91
2018-05-31T12:32:26.244Z,83.39
2018-05-31T12:34:54.655Z,82.16
2018-05-31T12:37:23.932Z,82.60
2018-05-31T12:39:52.334Z,80.59
2018-05-31T12:42:21.542Z,81.26
2018-05-31T12:44:50.724Z,81.68
2018-05-31T12:47:19.963Z,76.89
2018-05-31T12:49:48.354Z,73.75
2018-05-31T12:52:16.818Z,71.21
2018-05-31T12:54:45.984Z,72.27
2018-05-31T12:57:14.411Z,72.61
2018-05-31T12:59:42.824Z,73.81
2018-05-31T13:02:11.258Z,73.87
2018-05-31T13:04:40.437Z,74.28
2018-05-31T13:07:08.858Z,75.25
2018-05-31T13:09:38.061Z,76.19
2018-05-31T13:12:07.233Z,76.28
2018-05-31T13:14:35.692Z,76.82
2018-05-31T13:17:04.157Z,76.90
2018-05-31T13:19:32.609Z,78.39
2018-05-31T13:22:01.020Z,77.65
2018-05-31T13:24:29.479Z,78.04
2018-05-31T13:26:58.661Z,78.65
2018-05-31T13:29:27.986Z,79.22
2018-05-31T13:31:57.167Z,78.86
2018-05-31T13:34:28.535Z,78.18
2018-05-31T13:36:57.135Z,78.79
2018-05-31T13:39:25.648Z,78.15
2018-05-31T13:41:54.186Z,78.58
2018-05-31T13:44:23.452Z,78.69
2018-05-31T13:46:51.936Z,79.82
2018-05-31T13:49:20.455Z,82.15
2018-05-31T13:51:48.866Z,79.84
2018-05-31T13:54:17.382Z,77.16
2018-05-31T13:56:45.903Z,78.84
2018-05-31T13:59:14.376Z,77.12
2018-05-31T14:01:42.845Z,75.02
2018-05-31T14:04:11.340Z,71.92
2018-05-31T14:06:39.777Z,72.79
2018-05-31T14:09:08.312Z,71.22
2018-05-31T14:11:36.795Z,75.15
2018-05-31T14:14:05.247Z,72.44
2018-05-31T14:16:33.701Z,70.84
2018-05-31T14:19:02.918Z,71.18
2018-05-31T14:21:32.104Z,68.40
2018-05-31T14:24:01.338Z,68.79
2018-05-31T14:26:29.788Z,69.02
2018-05-31T14:28:58.266Z,70.79
2018-05-31T14:31:26.686Z,67.50
2018-05-31T14:33:55.147Z,67.37
2018-05-31T14:36:24.331Z,67.94
2018-05-31T14:38:52.778Z,68.13
2018-05-31T14:41:21.209Z,66.82
2018-05-31T14:43:49.652Z,66.18
2018-05-31T14:46:18.082Z,67.14
2018-05-31T14:48:46.545Z,66.15
2018-05-31T14:51:14.958Z,68.31
2018-05-31T14:53:44.175Z,68.56
2018-05-31T14:56:12.638Z,69.33
2018-05-31T14:58:41.862Z,69.87
2018-05-31T15:01:11.042Z,67.00
2018-05-31T15:03:39.494Z,67.76
2018-05-31T15:06:07.921Z,70.80
2018-05-31T15:08:37.131Z,66.91
2018-05-31T15:11:06.338Z,64.44
2018-05-31T15:13:34.810Z,64.39
2018-05-31T15:16:04.025Z,62.51
2018-05-31T15:18:33.309Z,63.66
2018-05-31T15:21:01.727Z,60.78
2018-05-31T15:23:30.181Z,60.24
2018-05-31T15:25:58.601Z,61.17
2018-05-31T15:28:27.076Z,59.92
2018-05-31T15:30:55.495Z,62.30
2018-05-31T15:33:23.965Z,60.27
2018-05-31T15:35:52.421Z,59.27
2018-05-31T15:38:21.613Z,61.39
2018-05-31T15:40:50.833Z,57.82
2018-05-31T15:43:19.284Z,57.81
2018-05-31T15:45:47.736Z,55.02
2018-05-31T15:48:16.161Z,57.51
2018-05-31T15:50:45.375Z,57.77
2018-05-31T15:53:14.559Z,58.32
2018-05-31T15:55:42.998Z,57.07
2018-05-31T15:58:11.443Z,58.62
2018-05-31T16:00:40.660Z,56.46
2018-05-31T16:03:09.837Z,56.97
2018-05-31T16:05:38.298Z,58.18
2018-05-31T16:08:06.730Z,56.90
2018-05-31T16:10:35.187Z,57.88
2018-05-31T16:13:03.610Z,60.19
2018-05-31T16:15:32.063Z,61.05
2018-05-31T16:18:01.371Z,55.88
2018-05-31T16:20:30.619Z,57.11
2018-05-31T16:22:59.051Z,56.57
2018-05-31T16:25:27.507Z,57.10
2018-05-31T16:27:55.926Z,56.85
2018-05-31T16:30:25.144Z,55.38
2018-05-31T16:32:54.315Z,56.25
2018-05-31T16:35:22.775Z,55.59
2018-05-31T16:37:51.227Z,56.16
2018-05-31T16:40:19.682Z,58.01
2018-05-31T16:42:48.132Z,56.75
2018-05-31T16:45:16.610Z,56.31
2018-05-31T16:47:45.074Z,56.49
2018-05-31T16:50:13.621Z,57.05
2018-05-31T16:52:42.032Z,57.65
2018-05-31T16:55:11.228Z,57.78
2018-05-31T16:57:39.660Z,58.98
2018-05-31T17:00:08.127Z,57.92
2018-05-31T17:02:36.583Z,57.51
2018-05-31T17:05:05.801Z,58.65
2018-05-31T17:07:34.265Z,58.60
2018-05-31T17:10:03.535Z,57.76
2018-05-31T17:12:31.980Z,58.22
2018-05-31T17:15:00.507Z,57.32
2018-05-31T17:17:28.888Z,57.24
2018-05-31T17:19:57.346Z,57.17
2018-05-31T17:22:25.826Z,58.42
2018-05-31T17:24:54.272Z,57.63
2018-05-31T17:27:23.616Z,57.11
2018-05-31T17:29:52.091Z,56.88
2018-05-31T17:32:20.504Z,57.26
2018-05-31T17:34:48.917Z,58.32
2018-05-31T17:37:17.415Z,57.71
2018-05-31T17:39:45.818Z,58.36
2018-05-31T17:42:14.306Z,58.05
2018-05-31T17:44:42.717Z,57.74
2018-05-31T17:47:11.145Z,57.81
2018-05-31T17:49:39.547Z,57.34
2018-05-31T17:52:09.560Z,57.60
2018-05-31T17:54:38.748Z,57.55
2018-05-31T17:57:07.202Z,58.31
2018-05-31T17:59:35.623Z,58.89
2018-05-31T18:02:04.078Z,58.13
2018-05-31T18:04:32.515Z,58.79
2018-05-31T18:07:01.712Z,58.60
2018-05-31T18:09:30.903Z,58.53
2018-05-31T18:12:00.111Z,58.12
2018-05-31T18:14:29.292Z,59.02
2018-05-31T18:16:57.752Z,58.80
2018-05-31T18:19:26.170Z,59.10
2018-05-31T18:21:54.608Z,59.31
2018-05-31T18:24:23.025Z,59.62
2018-05-31T18:26:51.469Z,59.65
2018-05-31T18:29:19.888Z,59.96
2018-05-31T18:31:48.318Z,59.79
2018-05-31T18:34:16.738Z,59.92
2018-05-31T18:36:45.228Z,60.09
2018-05-31T18:39:13.646Z,60.04
2018-05-31T18:41:42.143Z,60.41
2018-05-31T18:44:11.328Z,60.78
2018-05-31T18:46:39.775Z,61.33
2018-05-31T18:49:08.236Z,61.78
2018-05-31T18:51:36.676Z,61.87
2018-05-31T18:54:05.120Z,62.36
2018-05-31T18:56:33.584Z,63.12
2018-05-31T18:59:02.008Z,63.19
2018-05-31T19:01:30.478Z,63.87
2018-05-31T19:03:58.922Z,66.14
2018-05-31T19:06:27.362Z,67.36
2018-05-31T19:08:55.779Z,67.99
2018-05-31T19:11:24.222Z,68.18
2018-05-31T19:13:58.494Z,68.98
2018-05-31T19:16:27.706Z,69.71
2018-05-31T19:19:01.553Z,70.07
2018-05-31T19:21:30.030Z,70.71
2018-05-31T19:27:02.661Z,69.27
2018-05-31T19:29:32.102Z,70.73
2018-05-31T19:32:00.859Z,71.35
2018-05-31T19:34:31.540Z,71.54
2018-05-31T19:37:06.456Z,71.23
2018-05-31T19:39:34.916Z,71.12
2018-05-31T19:42:03.464Z,71.36
2018-05-31T19:44:37.485Z,71.22
2018-05-31T19:47:05.944Z,71.15
2018-05-31T19:49:35.125Z,70.57
2018-05-31T19:52:09.228Z,70.66
2018-05-31T19:54:38.415Z,70.71
2018-05-31T19:57:06.865Z,70.38
2018-05-31T19:59:40.596Z,70.50
2018-05-31T20:02:14.679Z,70.53
2018-05-31T20:04:43.481Z,71.06
2018-05-31T20:07:12.215Z,71.17
2018-05-31T20:09:40.883Z,71.09
2018-05-31T20:12:09.406Z,71.02
2018-05-31T20:14:38.467Z,71.22
2018-05-31T20:22:12.125Z,70.57
2018-05-31T20:24:41.505Z,70.91
2018-05-31T20:27:09.934Z,70.89
2018-05-31T20:29:38.446Z,71.27
2018-05-31T20:32:06.940Z,71.10
2018-05-31T20:34:35.948Z,71.18
2018-05-31T20:37:04.638Z,71.54
2018-05-31T20:39:33.996Z,71.89
2018-05-31T20:42:02.551Z,72.17
2018-05-31T20:44:30.991Z,72.58
2018-05-31T20:46:59.533Z,73.11
2018-05-31T20:49:27.994Z,73.54
2018-05-31T20:51:56.437Z,73.67
2018-05-31T20:54:24.883Z,73.78
2018-05-31T20:56:53.294Z,73.80
2018-05-31T20:59:22.491Z,73.75
2018-05-31T21:01:51.666Z,73.57
2018-05-31T21:04:20.090Z,73.57
2018-05-31T21:06:48.510Z,73.16
2018-05-31T21:09:16.935Z,73.48
2018-05-31T21:11:46.211Z,73.30
2018-05-31T21:14:14.662Z,73.10
2018-05-31T21:16:43.079Z,72.82
2018-05-31T21:19:11.531Z,73.04
2018-05-31T21:21:39.949Z,72.98
2018-05-31T21:24:08.383Z,73.10
2018-05-31T21:26:36.970Z,73.00
2018-05-31T21:29:05.444Z,73.08
2018-05-31T21:31:34.635Z,73.08
2018-05-31T21:34:03.932Z,73.18
2018-05-31T21:36:33.135Z,73.88
2018-05-31T21:39:01.584Z,74.17
2018-05-31T21:41:30.001Z,74.00
2018-05-31T21:43:58.551Z,74.77
2018-05-31T21:46:28.910Z,75.27
2018-05-31T21:48:57.652Z,74.52
2018-05-31T21:51:26.267Z,67.92
2018-05-31T21:53:58.414Z,67.67
2018-05-31T21:56:29.044Z,69.60
2018-05-31T21:58:58.524Z,70.97
2018-05-31T22:01:27.715Z,70.75
2018-05-31T22:03:57.766Z,74.99
